Time;durP1;ratioP1;P1;durP2;ratioP2;P2;SDS_P1;SDS_P2;PMS_P1;PMS_P2;Temp;Humidity;BMP_temperature;BMP_pressure;BME280_temperature;BME280_humidity;BME280_pressure;Samples;Min_cycle;Max_cycle;Signal;HPM_P1;HPM_P2
2023/01/09 00:01:23;;;;;;;20.60;9.52;;;;;;;4.03;100.00;97035.28;2489533;29;20892;-88
2023/01/09 00:02:39;;;;;;;19.80;10.15;;;;;;;4.14;100.00;97041.94;2489836;29;20482;-88
2023/01/09 00:03:55;;;;;;;21.20;9.10;;;;;;;4.00;100.00;97040.53;2489590;29;20058;-88
2023/01/09 00:05:13;;;;;;;17.60;9.15;;;;;;;3.98;100.00;97031.97;2489714;29;20586;-88
2023/01/09 00:06:28;;;;;;;20.92;9.40;;;;;;;4.28;100.00;97039.03;2489489;29;20099;-88
2023/01/09 00:07:44;;;;;;;17.63;8.57;;;;;;;4.07;100.00;97036.06;2489882;29;20475;-89
2023/01/09 00:09:00;;;;;;;17.27;9.13;;;;;;;4.13;100.00;97037.66;2489426;29;20054;-88
2023/01/09 00:10:16;;;;;;;18.67;9.45;;;;;;;4.44;100.00;97032.56;2489330;29;20050;-88
2023/01/09 00:11:32;;;;;;;16.45;8.35;;;;;;;4.44;100.00;97029.97;2489513;29;20054;-88
2023/01/09 00:12:48;;;;;;;18.33;8.90;;;;;;;4.49;100.00;97030.69;2489569;29;20067;-88
2023/01/09 00:14:04;;;;;;;17.33;9.05;;;;;;;4.63;100.00;97032.91;2489564;29;20490;-88
2023/01/09 00:15:19;;;;;;;17.67;8.75;;;;;;;4.64;100.00;97026.84;2489699;29;20072;-88
2023/01/09 00:16:35;;;;;;;17.33;9.32;;;;;;;4.70;100.00;97024.97;2489182;29;20264;-90
2023/01/09 00:17:50;;;;;;;16.58;8.65;;;;;;;4.70;100.00;97024.97;2489761;29;20069;-87
2023/01/09 00:19:06;;;;;;;16.10;8.35;;;;;;;4.23;100.00;97019.25;2489653;29;20054;-88
2023/01/09 00:20:22;;;;;;;19.55;9.30;;;;;;;4.61;100.00;97016.56;2489388;29;20059;-89
2023/01/09 00:21:37;;;;;;;19.50;8.80;;;;;;;4.31;100.00;97011.28;2489629;29;20532;-87
2023/01/09 00:22:53;;;;;;;18.48;8.30;;;;;;;4.15;100.00;97013.44;2489406;29;20474;-88
2023/01/09 00:24:09;;;;;;;18.27;8.82;;;;;;;4.32;100.00;97010.38;2489755;29;20070;-89
2023/01/09 00:25:24;;;;;;;18.60;8.68;;;;;;;4.10;100.00;97008.34;2489557;29;20096;-87
2023/01/09 00:26:40;;;;;;;17.10;8.73;;;;;;;4.49;100.00;97012.53;2489398;29;20065;-89
2023/01/09 00:27:56;;;;;;;16.13;8.32;;;;;;;4.15;100.00;97010.84;2489558;29;20082;-88
2023/01/09 00:29:11;;;;;;;16.58;8.68;;;;;;;4.12;100.00;96997.09;2489592;29;20058;-89
2023/01/09 00:30:27;;;;;;;16.30;8.70;;;;;;;4.17;100.00;97001.28;2489322;29;20054;-89
2023/01/09 00:31:42;;;;;;;15.85;7.93;;;;;;;3.88;100.00;97000.28;2489433;29;20089;-89
2023/01/09 00:32:58;;;;;;;17.27;7.65;;;;;;;3.77;100.00;97000.53;2489477;29;20078;-88
2023/01/09 00:34:13;;;;;;;18.40;8.80;;;;;;;3.79;100.00;96995.31;2489354;29;20050;-87
2023/01/09 00:35:29;;;;;;;15.77;7.65;;;;;;;3.65;100.00;96985.31;2489213;29;20054;-88
2023/01/09 00:36:45;;;;;;;18.67;8.20;;;;;;;3.98;100.00;96990.53;2489184;29;20058;-87
2023/01/09 00:38:02;;;;;;;16.45;8.35;;;;;;;3.94;100.00;96984.56;2489222;29;20137;-89
2023/01/09 00:39:17;;;;;;;17.73;8.05;;;;;;;3.97;100.00;96983.66;2489462;29;20502;-88
2023/01/09 00:40:33;;;;;;;14.80;7.97;;;;;;;3.91;100.00;96984.66;2489413;29;20050;-88
2023/01/09 00:41:52;;;;;;;15.07;8.15;;;;;;;4.19;100.00;96978.78;2489330;29;20050;-86
2023/01/09 00:43:08;;;;;;;16.58;8.35;;;;;;;4.46;100.00;96975.47;2489218;29;20100;-88
2023/01/09 00:44:33;;;;;;;18.13;8.80;;;;;;;4.50;100.00;96971.94;2489348;29;20678;-89
2023/01/09 00:45:49;;;;;;;17.10;8.60;;;;;;;4.60;100.00;96973.34;2489219;29;20441;-87
2023/01/09 00:47:13;;;;;;;14.52;8.15;;;;;;;4.41;100.00;96967.00;2489023;29;20066;-89
2023/01/09 00:48:29;;;;;;;17.60;7.63;;;;;;;4.06;100.00;96965.31;2489312;29;20105;-87
2023/01/09 00:49:45;;;;;;;15.52;8.18;;;;;;;4.00;100.00;96957.66;2489517;29;20062;-87
2023/01/09 00:51:01;;;;;;;18.08;8.13;;;;;;;4.16;100.00;96952.97;2488890;29;20054;-88
2023/01/09 00:52:17;;;;;;;16.50;7.65;;;;;;;4.07;100.00;96948.88;2489339;29;20434;-88
2023/01/09 00:53:36;;;;;;;16.33;7.75;;;;;;;4.17;100.00;96946.88;2489427;29;20169;-88
2023/01/09 00:54:51;;;;;;;17.17;8.18;;;;;;;4.27;100.00;96944.06;2479490;29;20426;-88
2023/01/09 00:56:12;;;;;;;18.88;8.30;;;;;;;4.43;100.00;96940.16;2483172;29;20062;-89
2023/01/09 00:57:29;;;;;;;15.27;7.57;;;;;;;4.84;100.00;96939.84;2489131;29;20085;-88
2023/01/09 00:58:46;;;;;;;17.20;7.40;;;;;;;4.90;100.00;96937.09;2489197;29;20085;-91
2023/01/09 01:00:03;;;;;;;18.58;8.23;;;;;;;4.89;100.00;96935.41;2489358;29;20054;-89
2023/01/09 01:01:18;;;;;;;16.52;8.05;;;;;;;4.82;100.00;96933.88;2489023;29;20061;-89
2023/01/09 01:02:34;;;;;;;11.65;6.50;;;;;;;4.77;100.00;96928.81;2489246;29;20058;-89
2023/01/09 01:03:50;;;;;;;14.88;7.88;;;;;;;4.84;100.00;96926.06;2489354;29;20120;-89
2023/01/09 01:08:17;;;;;;;13.90;6.97;;;;;;;4.46;100.00;96923.66;2489110;29;20692;-89
2023/01/09 01:09:33;;;;;;;12.80;6.78;;;;;;;4.24;100.00;96924.25;2489076;29;20503;-88
2023/01/09 01:10:48;;;;;;;14.25;6.60;;;;;;;4.40;100.00;96919.50;2488949;29;20460;-88
2023/01/09 01:12:05;;;;;;;13.43;6.57;;;;;;;4.48;100.00;96916.72;2489008;29;20058;-89
2023/01/09 01:13:21;;;;;;;16.75;7.25;;;;;;;4.35;100.00;96922.22;2489085;29;20058;-90
2023/01/09 01:14:37;;;;;;;16.10;6.97;;;;;;;4.61;100.00;96909.41;2489082;29;20089;-89
2023/01/09 01:15:53;;;;;;;15.45;7.13;;;;;;;4.26;100.00;96912.09;2488660;29;20085;-89
2023/01/09 01:17:08;;;;;;;16.10;7.70;;;;;;;4.39;100.00;96912.59;2488891;29;20085;-89
2023/01/09 01:18:24;;;;;;;13.73;6.80;;;;;;;4.31;100.00;96915.41;2489100;29;20429;-89
2023/01/09 01:19:39;;;;;;;13.05;7.43;;;;;;;4.48;100.00;96908.94;2489438;29;20051;-88
2023/01/09 01:20:55;;;;;;;14.90;7.65;;;;;;;4.52;100.00;96905.34;2489234;29;20058;-88
2023/01/09 01:22:11;;;;;;;16.25;7.50;;;;;;;4.53;100.00;96901.88;2489100;29;20082;-88
2023/01/09 01:23:26;;;;;;;15.63;7.80;;;;;;;4.62;100.00;96909.38;2488914;29;20054;-88
2023/01/09 01:24:42;;;;;;;15.98;7.32;;;;;;;4.91;100.00;96910.28;2489080;29;20058;-89
2023/01/09 01:26:06;;;;;;;13.52;6.93;;;;;;;4.91;100.00;96902.50;2489100;29;20111;-88
2023/01/09 01:27:22;;;;;;;13.38;7.07;;;;;;;5.11;100.00;96889.81;2488943;29;20058;-89
2023/01/09 01:28:39;;;;;;;13.95;7.35;;;;;;;5.19;100.00;96900.78;2488806;29;20055;-89
2023/01/09 01:29:55;;;;;;;14.35;6.60;;;;;;;5.31;100.00;96894.38;2488914;29;20531;-89
2023/01/09 01:31:18;;;;;;;22.23;10.80;;;;;;;5.26;100.00;96893.66;2489147;29;20082;-87
2023/01/09 01:32:34;;;;;;;26.45;13.45;;;;;;;5.03;100.00;96893.47;2488963;29;20105;-88
2023/01/09 01:33:49;;;;;;;26.63;13.80;;;;;;;4.97;100.00;96888.50;2488758;29;20087;-87
2023/01/09 01:35:06;;;;;;;24.95;13.10;;;;;;;4.91;100.00;96894.72;2488646;29;20333;-89
2023/01/09 01:36:22;;;;;;;25.92;13.23;;;;;;;5.09;100.00;96887.25;2488408;29;20413;-87
2023/01/09 01:37:38;;;;;;;23.73;12.70;;;;;;;4.87;100.00;96890.47;2478638;29;20648;-91
2023/01/09 01:38:54;;;;;;;24.13;12.68;;;;;;;4.86;100.00;96885.38;2482478;29;20062;-87
2023/01/09 01:40:10;;;;;;;31.77;13.88;;;;;;;4.84;100.00;96894.94;2488734;29;20513;-88
2023/01/09 01:41:29;;;;;;;25.55;13.95;;;;;;;4.79;100.00;96895.91;2489054;29;20055;-87
2023/01/09 01:42:47;;;;;;;25.75;11.98;;;;;;;4.94;100.00;96894.59;2488859;29;20054;-87
2023/01/09 01:44:05;;;;;;;24.98;12.52;;;;;;;5.09;100.00;96889.84;2488788;29;20539;-87
2023/01/09 01:45:24;;;;;;;23.52;12.55;;;;;;;5.00;100.00;96887.53;2488648;29;20429;-88
2023/01/09 01:46:39;;;;;;;25.50;11.98;;;;;;;4.96;100.00;96886.78;2488770;29;20050;-87
2023/01/09 01:48:01;;;;;;;21.75;10.95;;;;;;;4.99;100.00;96884.09;2488970;29;20113;-87
2023/01/09 01:49:19;;;;;;;20.30;10.15;;;;;;;4.73;100.00;96882.28;2488916;29;20429;-87
2023/01/09 01:51:00;;;;;;;20.77;9.80;;;;;;;5.10;100.00;96883.75;2488854;29;20137;-90
2023/01/09 01:52:18;;;;;;;20.48;9.75;;;;;;;5.08;100.00;96876.00;2488515;29;20054;-87
2023/01/09 01:53:38;;;;;;;18.25;10.65;;;;;;;5.10;100.00;96873.38;2488700;29;20059;-91
2023/01/09 01:54:54;;;;;;;18.77;9.57;;;;;;;5.13;100.00;96873.28;2488834;29;20066;-88
2023/01/09 01:56:16;;;;;;;19.67;9.65;;;;;;;5.26;100.00;96870.28;2488801;29;20054;-87
2023/01/09 01:57:34;;;;;;;19.83;10.88;;;;;;;5.15;100.00;96866.28;2488233;29;20090;-91
2023/01/09 01:59:15;;;;;;;21.00;10.68;;;;;;;5.15;100.00;96861.09;2488693;29;20141;-87
2023/01/09 02:00:37;;;;;;;19.92;9.57;;;;;;;5.17;100.00;96848.94;2488850;29;20129;-87
2023/01/09 02:01:56;;;;;;;20.42;10.48;;;;;;;5.29;100.00;96846.84;2488633;29;20082;-87
2023/01/09 02:03:16;;;;;;;20.33;10.45;;;;;;;4.83;100.00;96846.56;2488409;29;20098;-88
2023/01/09 02:04:35;;;;;;;20.27;10.85;;;;;;;4.32;100.00;96847.16;2488619;29;20054;-88
2023/01/09 02:05:51;;;;;;;20.63;9.18;;;;;;;4.35;100.00;96843.63;2488408;29;20065;-87
2023/01/09 02:07:08;;;;;;;21.00;8.82;;;;;;;4.40;100.00;96840.91;2488485;29;20569;-87
2023/01/09 02:08:24;;;;;;;16.17;8.13;;;;;;;4.31;100.00;96840.28;2488640;29;20066;-89
2023/01/09 02:09:43;;;;;;;14.85;7.85;;;;;;;4.49;100.00;96835.47;2488827;29;20058;-88
2023/01/09 02:11:00;;;;;;;16.55;7.88;;;;;;;4.59;100.00;96830.84;2488432;29;20089;-90
2023/01/09 02:12:24;;;;;;;12.93;7.10;;;;;;;4.43;100.00;96835.63;2488718;29;20430;-88
2023/01/09 02:13:41;;;;;;;14.93;7.65;;;;;;;4.49;100.00;96825.09;2478552;29;20051;-87
2023/01/09 02:14:58;;;;;;;14.80;7.07;;;;;;;4.48;100.00;96824.25;2482807;29;20490;-87
2023/01/09 02:16:52;;;;;;;15.85;7.72;;;;;;;4.96;100.00;96821.94;2488473;29;20173;-88
2023/01/09 02:18:33;;;;;;;17.02;7.45;;;;;;;5.17;100.00;96809.19;2488341;29;20059;-87
2023/01/09 02:20:11;;;;;;;14.70;6.82;;;;;;;5.15;100.00;96814.41;2483637;29;20050;-91
2023/01/09 02:21:37;;;;;;;16.65;8.05;;;;;;;5.23;100.00;96807.22;2488083;29;20088;-89
2023/01/09 02:23:25;;;;;;;13.82;7.38;;;;;;;5.30;100.00;96801.81;2488076;29;20065;-88
2023/01/09 02:25:07;;;;;;;12.68;6.15;;;;;;;5.15;100.00;96801.44;2488388;29;20439;-90
2023/01/09 02:26:50;;;;;;;12.65;7.18;;;;;;;5.27;100.00;96800.19;2488521;29;20531;-87
2023/01/09 02:28:28;;;;;;;13.20;6.03;;;;;;;5.27;100.00;96802.78;2488312;29;20054;-87
2023/01/09 02:30:08;;;;;;;12.80;6.63;;;;;;;5.18;100.00;96792.72;2488368;29;20061;-89
2023/01/09 02:31:40;;;;;;;16.42;7.80;;;;;;;5.01;100.00;96790.66;2488241;29;20095;-87
2023/01/09 02:33:07;;;;;;;15.25;7.43;;;;;;;5.13;100.00;96792.03;2488573;29;20187;-88
2023/01/09 02:34:35;;;;;;;15.13;7.40;;;;;;;5.09;100.00;96793.88;2488134;29;20054;-89
2023/01/09 02:36:13;;;;;;;18.02;7.70;;;;;;;5.06;100.00;96788.78;2488019;29;20063;-87
2023/01/09 02:37:38;;;;;;;13.20;6.85;;;;;;;5.13;100.00;96785.06;2488612;29;20167;-88
2023/01/09 02:39:15;;;;;;;17.00;8.10;;;;;;;5.09;100.00;96783.47;2488446;29;20054;-90
2023/01/09 02:40:51;;;;;;;13.38;7.25;;;;;;;5.00;100.00;96778.59;2488517;29;20062;-87
2023/01/09 02:42:20;;;;;;;16.48;7.18;;;;;;;5.11;100.00;96781.69;2488448;29;20127;-88
2023/01/09 02:43:38;;;;;;;14.27;7.90;;;;;;;5.23;100.00;96781.28;2488323;29;20089;-91
2023/01/09 02:44:54;;;;;;;15.10;7.82;;;;;;;5.18;100.00;96783.19;2488357;29;20216;-89
2023/01/09 02:46:21;;;;;;;17.27;9.00;;;;;;;5.12;100.00;96779.94;2488288;29;20061;-87
2023/01/09 02:47:43;;;;;;;16.70;8.40;;;;;;;4.92;100.00;96784.88;2488513;29;20050;-87
2023/01/09 02:48:58;;;;;;;16.08;8.43;;;;;;;5.10;100.00;96785.19;2488501;29;20053;-86
2023/01/09 02:50:19;;;;;;;20.80;9.30;;;;;;;4.86;100.00;96776.44;2488540;29;20049;-89
2023/01/09 02:51:50;;;;;;;18.58;9.13;;;;;;;5.05;100.00;96777.53;2488313;29;20066;-87
2023/01/09 02:53:17;;;;;;;18.15;9.68;;;;;;;5.14;100.00;96778.97;2488639;29;20158;-88
2023/01/09 02:54:47;;;;;;;22.70;9.27;;;;;;;5.32;100.00;96771.50;2488548;29;20129;-87
2023/01/09 02:56:11;;;;;;;18.17;8.98;;;;;;;5.27;100.00;96776.84;2488200;29;20061;-88
2023/01/09 02:58:09;;;;;;;19.08;9.32;;;;;;;5.03;100.00;96771.56;2488175;29;20070;-89
2023/01/09 02:59:43;;;;;;;21.23;9.57;;;;;;;4.78;100.00;96769.75;2461433;29;20585;-87
2023/01/09 03:01:26;;;;;;;19.60;8.45;;;;;;;4.53;100.00;96765.34;2488127;29;20047;-87
2023/01/09 03:03:17;;;;;;;18.52;9.18;;;;;;;4.58;100.00;96761.78;2487419;29;20453;-88
2023/01/09 03:04:38;;;;;;;21.00;9.95;;;;;;;4.73;100.00;96761.28;2475993;29;20094;-87
2023/01/09 03:06:03;;;;;;;21.27;9.65;;;;;;;4.81;100.00;96754.09;2487979;29;20061;-88
2023/01/09 03:07:40;;;;;;;23.60;10.35;;;;;;;4.88;100.00;96761.69;2488402;29;20513;-87
2023/01/09 03:09:03;;;;;;;22.20;8.90;;;;;;;4.93;100.00;96763.25;2488084;29;20095;-88
2023/01/09 03:10:40;;;;;;;22.75;9.77;;;;;;;5.17;100.00;96760.75;2488559;29;20141;-89
2023/01/09 03:12:16;;;;;;;20.63;9.50;;;;;;;5.19;100.00;96760.66;2488212;29;20054;-88
2023/01/09 03:13:42;;;;;;;18.92;9.77;;;;;;;5.27;100.00;96755.22;2488230;29;20142;-87
2023/01/09 03:15:00;;;;;;;20.75;9.18;;;;;;;4.86;100.00;96763.50;2488337;29;20047;-89
2023/01/09 03:16:23;;;;;;;21.15;9.93;;;;;;;4.98;100.00;96755.31;2488149;29;20424;-89
2023/01/09 03:17:43;;;;;;;18.42;9.45;;;;;;;5.09;100.00;96757.53;2487896;29;20046;-89
2023/01/09 03:19:00;;;;;;;22.25;9.82;;;;;;;5.16;100.00;96753.00;2488395;29;20168;-87
2023/01/09 03:20:22;;;;;;;20.48;10.30;;;;;;;5.28;100.00;96751.72;2487907;29;20058;-88
2023/01/09 03:21:39;;;;;;;21.33;9.00;;;;;;;5.31;100.00;96749.88;2488237;29;20106;-88
2023/01/09 03:23:00;;;;;;;18.35;9.05;;;;;;;5.09;100.00;96752.34;2488096;29;20059;-87
2023/01/09 03:24:16;;;;;;;18.75;9.23;;;;;;;5.20;100.00;96747.66;2487852;29;20058;-88
2023/01/09 03:25:32;;;;;;;18.30;8.60;;;;;;;5.28;100.00;96755.19;2488317;29;20506;-88
2023/01/09 03:26:48;;;;;;;18.33;8.88;;;;;;;5.36;100.00;96747.13;2487947;29;20050;-87
2023/01/09 03:28:06;;;;;;;19.33;9.40;;;;;;;5.35;100.00;96748.88;2487799;29;20055;-87
2023/01/09 03:29:21;;;;;;;21.45;9.15;;;;;;;5.27;100.00;96752.63;2487359;29;20082;-89
2023/01/09 03:30:37;;;;;;;23.42;10.05;;;;;;;5.32;100.00;96753.34;2487992;29;20082;-88
2023/01/09 03:31:53;;;;;;;18.02;8.75;;;;;;;5.30;100.00;96753.38;2488176;29;20057;-88
2023/01/09 03:33:09;;;;;;;19.70;9.50;;;;;;;5.32;100.00;96748.97;2488052;29;20099;-88
2023/01/09 03:34:24;;;;;;;20.17;9.60;;;;;;;5.20;100.00;96749.41;2488063;29;20502;-87
2023/01/09 03:35:40;;;;;;;18.42;9.20;;;;;;;5.35;100.00;96750.63;2487925;29;20058;-87
2023/01/09 03:36:56;;;;;;;18.42;9.15;;;;;;;5.42;100.00;96746.91;2487667;29;20058;-87
2023/01/09 03:38:12;;;;;;;20.65;9.07;;;;;;;5.45;100.00;96744.22;2488116;29;20058;-89
2023/01/09 03:39:27;;;;;;;18.10;8.48;;;;;;;5.31;100.00;96742.09;2487901;29;20554;-90
2023/01/09 03:40:43;;;;;;;17.70;9.13;;;;;;;5.43;100.00;96747.78;2488266;29;20058;-89
2023/01/09 03:41:59;;;;;;;17.60;8.98;;;;;;;5.43;100.00;96743.41;2487890;29;20061;-88
2023/01/09 03:43:14;;;;;;;17.25;8.68;;;;;;;5.46;100.00;96748.53;2487637;29;20051;-87
2023/01/09 03:44:30;;;;;;;17.85;8.75;;;;;;;5.44;100.00;96742.50;2487715;29;20058;-88
2023/01/09 03:45:46;;;;;;;18.05;7.97;;;;;;;5.44;100.00;96744.28;2487875;29;20592;-87
2023/01/09 03:47:01;;;;;;;17.60;8.55;;;;;;;5.34;100.00;96733.38;2487587;29;20107;-89
2023/01/09 03:48:17;;;;;;;16.17;7.72;;;;;;;5.36;100.00;96736.75;2488046;29;20166;-89
2023/01/09 03:49:32;;;;;;;20.88;9.30;;;;;;;5.40;100.00;96745.28;2487748;29;20050;-88
2023/01/09 03:50:53;;;;;;;19.95;9.02;;;;;;;5.44;100.00;96744.28;2487489;29;20059;-87
2023/01/09 03:52:08;;;;;;;19.10;9.38;;;;;;;5.06;100.00;96748.09;2487837;29;20600;-87
2023/01/09 03:53:26;;;;;;;20.55;9.63;;;;;;;5.14;100.00;96744.44;2487904;29;20054;-87
2023/01/09 03:54:41;;;;;;;20.45;9.88;;;;;;;5.28;100.00;96749.13;2487609;29;20050;-87
2023/01/09 03:55:57;;;;;;;21.05;10.35;;;;;;;5.29;100.00;96745.63;2487757;29;20141;-86
2023/01/09 03:57:13;;;;;;;21.38;9.63;;;;;;;5.37;100.00;96741.03;2487404;29;20069;-88
2023/01/09 03:58:29;;;;;;;21.15;10.57;;;;;;;5.36;100.00;96742.78;2487701;29;20054;-88
2023/01/09 03:59:44;;;;;;;20.70;9.02;;;;;;;5.28;100.00;96738.75;2487903;29;20119;-88
2023/01/09 04:01:02;;;;;;;21.55;9.93;;;;;;;5.24;100.00;96745.81;2487073;29;20054;-88
2023/01/09 04:02:18;;;;;;;23.45;9.93;;;;;;;5.08;100.00;96743.72;2487428;29;20086;-89
2023/01/09 04:03:33;;;;;;;21.08;11.05;;;;;;;5.19;100.00;96740.78;2487742;29;20135;-87
2023/01/09 04:04:49;;;;;;;22.38;10.27;;;;;;;5.11;100.00;96742.78;2487825;29;20055;-87
2023/01/09 04:06:05;;;;;;;22.67;10.95;;;;;;;5.18;100.00;96746.88;2487533;29;20449;-89
2023/01/09 04:07:21;;;;;;;23.38;10.48;;;;;;;4.80;100.00;96738.59;2487524;29;20502;-87
2023/01/09 04:08:36;;;;;;;21.23;10.27;;;;;;;4.95;100.00;96751.06;2487711;29;20509;-87
2023/01/09 04:09:52;;;;;;;22.70;10.93;;;;;;;5.07;100.00;96755.00;2487522;29;20088;-88
2023/01/09 04:11:08;;;;;;;21.73;10.43;;;;;;;5.11;100.00;96755.75;2487409;29;20137;-87
2023/01/09 04:12:24;;;;;;;24.33;10.82;;;;;;;5.29;100.00;96748.22;2486278;29;20157;-88
2023/01/09 04:13:39;;;;;;;21.10;10.82;;;;;;;5.35;100.00;96748.03;2487617;29;20050;-87
2023/01/09 04:14:55;;;;;;;24.35;11.07;;;;;;;5.27;100.00;96744.84;2487704;29;20054;-86
2023/01/09 04:16:10;;;;;;;20.35;10.13;;;;;;;5.19;100.00;96740.78;2487581;29;20429;-87
2023/01/09 04:17:26;;;;;;;24.88;10.50;;;;;;;4.81;100.00;96737.69;2487076;29;20057;-88
2023/01/09 04:18:41;;;;;;;20.17;9.80;;;;;;;4.65;100.00;96739.94;2487735;29;20085;-88
2023/01/09 04:19:58;;;;;;;18.98;9.85;;;;;;;4.73;100.00;96739.69;2487853;29;20050;-88
2023/01/09 04:21:13;;;;;;;24.15;10.80;;;;;;;4.68;100.00;96734.66;2487929;29;20062;-87
2023/01/09 04:22:30;;;;;;;22.00;10.05;;;;;;;4.46;100.00;96737.06;2487491;29;20918;-87
2023/01/09 04:23:45;;;;;;;23.75;11.15;;;;;;;4.51;100.00;96722.22;2487596;29;20409;-88
2023/01/09 04:25:01;;;;;;;24.58;11.02;;;;;;;4.72;100.00;96725.88;2487618;29;20107;-88
2023/01/09 04:26:17;;;;;;;22.67;11.35;;;;;;;5.03;100.00;96724.00;2487773;29;20047;-86
2023/01/09 04:27:32;;;;;;;22.33;10.70;;;;;;;5.02;100.00;96723.19;2487756;29;20050;-87
2023/01/09 04:28:48;;;;;;;23.88;10.02;;;;;;;5.05;100.00;96717.06;2487854;29;20061;-87
2023/01/09 04:30:04;;;;;;;23.73;10.70;;;;;;;4.74;100.00;96720.63;2487519;29;20107;-86
2023/01/09 04:31:20;;;;;;;24.38;10.85;;;;;;;4.81;100.00;96722.16;2487847;29;20083;-86
2023/01/09 04:32:36;;;;;;;25.73;11.40;;;;;;;5.02;100.00;96719.72;2486831;29;20062;-87
2023/01/09 04:33:51;;;;;;;23.65;10.27;;;;;;;4.84;100.00;96721.22;2487248;29;20154;-90
2023/01/09 04:35:07;;;;;;;28.05;11.68;;;;;;;4.85;100.00;96722.91;2487669;29;20081;-87
2023/01/09 04:36:23;;;;;;;21.40;10.75;;;;;;;4.88;100.00;96726.22;2487807;29;20051;-87
2023/01/09 04:37:39;;;;;;;24.35;11.35;;;;;;;4.81;100.00;96724.75;2487382;29;20095;-87
2023/01/09 04:38:54;;;;;;;26.88;11.20;;;;;;;4.79;100.00;96729.13;2487528;29;20059;-89
2023/01/09 04:40:11;;;;;;;27.00;11.18;;;;;;;4.98;100.00;96724.19;2488521;29;20533;-87
2023/01/09 04:41:59;;;;;;;26.63;10.88;;;;;;;5.02;100.00;96725.78;2489224;29;20062;-88
2023/01/09 04:43:08;;;;;;;27.38;10.75;;;;;;;4.99;100.00;96722.44;2488780;29;20054;-87
2023/01/09 04:44:27;;;;;;;22.80;11.02;;;;;;;4.59;100.00;96719.41;2489363;29;20085;-86
2023/01/09 04:45:42;;;;;;;23.42;10.57;;;;;;;4.35;100.00;96721.84;2479550;29;20058;-87
2023/01/09 04:46:58;;;;;;;22.38;10.75;;;;;;;4.08;100.00;96727.84;2483047;29;20401;-86
2023/01/09 04:48:14;;;;;;;26.73;10.63;;;;;;;4.32;100.00;96729.72;2489404;29;20481;-86
2023/01/09 04:49:30;;;;;;;22.92;11.02;;;;;;;4.60;100.00;96723.69;2489544;29;20062;-87
2023/01/09 04:50:45;;;;;;;26.98;10.75;;;;;;;4.43;100.00;96726.81;2489479;29;20054;-88
2023/01/09 04:52:01;;;;;;;27.20;11.77;;;;;;;4.26;100.00;96728.16;2489361;29;20042;-87
2023/01/09 04:53:16;;;;;;;27.55;12.38;;;;;;;4.07;100.00;96727.88;2488902;29;20054;-90
2023/01/09 04:54:33;;;;;;;29.13;12.40;;;;;;;4.46;100.00;96731.88;2479463;29;20071;-87
2023/01/09 04:55:48;;;;;;;29.67;12.93;;;;;;;4.48;100.00;96727.53;2483491;29;20054;-86
2023/01/09 04:57:04;;;;;;;23.65;11.30;;;;;;;4.64;100.00;96735.66;2489212;29;20986;-87
2023/01/09 04:58:20;;;;;;;25.35;12.45;;;;;;;4.78;100.00;96727.44;2488944;29;20130;-90
2023/01/09 04:59:36;;;;;;;25.25;11.45;;;;;;;4.92;100.00;96729.56;2489013;29;20529;-87
2023/01/09 05:00:51;;;;;;;28.15;11.82;;;;;;;4.80;100.00;96733.41;2488609;29;20051;-86
2023/01/09 05:02:07;;;;;;;21.85;10.45;;;;;;;4.43;100.00;96735.44;2488736;29;20061;-89
2023/01/09 05:03:22;;;;;;;24.55;11.10;;;;;;;4.80;100.00;96738.59;2489035;29;20541;-87
2023/01/09 05:04:38;;;;;;;25.63;11.25;;;;;;;4.70;100.00;96734.59;2489084;29;20058;-87
2023/01/09 05:05:53;;;;;;;24.00;10.50;;;;;;;4.51;100.00;96730.00;2489076;29;20058;-86
2023/01/09 05:07:09;;;;;;;21.63;10.52;;;;;;;4.83;100.00;96733.31;2489130;29;20050;-87
2023/01/09 05:08:25;;;;;;;21.92;11.15;;;;;;;4.98;100.00;96736.28;2488947;29;21096;-86
2023/01/09 05:09:41;;;;;;;23.83;10.90;;;;;;;4.90;100.00;96737.41;2489216;29;20065;-88
2023/01/09 05:10:57;;;;;;;24.85;11.25;;;;;;;4.97;100.00;96732.00;2488794;29;20141;-89
2023/01/09 05:12:12;;;;;;;22.05;11.07;;;;;;;4.85;100.00;96735.88;2488908;29;20636;-87
2023/01/09 05:13:28;;;;;;;24.35;11.68;;;;;;;4.65;100.00;96733.00;2489269;29;20633;-88
2023/01/09 05:14:44;;;;;;;24.73;11.05;;;;;;;4.46;100.00;96737.91;2489113;29;20061;-87
2023/01/09 05:15:59;;;;;;;28.58;11.88;;;;;;;4.39;100.00;96733.81;2489141;29;20084;-87
2023/01/09 05:17:15;;;;;;;27.67;11.65;;;;;;;4.26;100.00;96735.09;2488810;29;20110;-86
2023/01/09 05:18:31;;;;;;;25.50;12.38;;;;;;;4.18;100.00;96728.41;2489053;29;20085;-88
2023/01/09 05:19:46;;;;;;;28.98;12.57;;;;;;;4.16;100.00;96726.75;2488913;29;20050;-87
2023/01/09 05:21:02;;;;;;;28.90;13.38;;;;;;;4.27;100.00;96727.28;2488473;29;20066;-86
2023/01/09 05:22:18;;;;;;;29.60;12.57;;;;;;;4.21;100.00;96732.66;2487917;29;20177;-89
2023/01/09 05:23:33;;;;;;;30.23;13.07;;;;;;;4.34;100.00;96726.22;2488128;29;20054;-86
2023/01/09 05:24:49;;;;;;;27.90;12.10;;;;;;;4.14;100.00;96731.13;2488994;29;20046;-88
2023/01/09 05:26:04;;;;;;;27.58;11.57;;;;;;;4.02;100.00;96728.00;2489161;29;20054;-85
2023/01/09 05:27:20;;;;;;;31.05;12.45;;;;;;;3.97;100.00;96719.53;2488905;29;20462;-86
2023/01/09 05:28:36;;;;;;;29.77;12.23;;;;;;;3.99;100.00;96717.75;2488882;29;20062;-87
2023/01/09 05:29:52;;;;;;;29.58;12.73;;;;;;;4.14;100.00;96713.84;2488789;29;20114;-87
2023/01/09 05:31:07;;;;;;;26.33;12.00;;;;;;;3.96;100.00;96707.47;2489152;29;20054;-89
2023/01/09 05:32:23;;;;;;;28.05;12.48;;;;;;;4.08;100.00;96714.88;2488710;29;20054;-87
2023/01/09 05:33:38;;;;;;;34.10;12.75;;;;;;;4.32;100.00;96709.00;2488622;29;20430;-90
2023/01/09 05:34:54;;;;;;;31.40;12.88;;;;;;;4.28;100.00;96707.41;2488931;29;20550;-88
2023/01/09 05:36:09;;;;;;;31.38;12.80;;;;;;;4.18;100.00;96707.69;2488453;29;20502;-89
2023/01/09 05:37:25;;;;;;;31.05;13.15;;;;;;;4.33;100.00;96705.50;2488532;29;20061;-89
2023/01/09 05:38:41;;;;;;;32.30;12.85;;;;;;;4.22;100.00;96711.03;2488929;29;20118;-87
2023/01/09 05:39:56;;;;;;;29.20;12.35;;;;;;;3.92;100.00;96708.47;2488654;29;20071;-87
2023/01/09 05:41:12;;;;;;;28.10;11.98;;;;;;;4.02;100.00;96704.69;2488744;29;20428;-90
2023/01/09 05:42:28;;;;;;;25.85;11.80;;;;;;;4.02;100.00;96702.09;2488537;29;20383;-87
2023/01/09 05:43:43;;;;;;;29.40;12.52;;;;;;;3.95;100.00;96701.44;2488817;29;20618;-87
2023/01/09 05:44:59;;;;;;;29.13;12.25;;;;;;;3.96;100.00;96702.31;2487839;29;20042;-87
2023/01/09 05:46:14;;;;;;;33.90;14.48;;;;;;;4.40;100.00;96704.44;2488213;29;20046;-92
2023/01/09 05:47:30;;;;;;;33.20;14.57;;;;;;;4.46;100.00;96699.06;2487128;29;20646;-87
2023/01/09 05:48:46;;;;;;;30.88;13.15;;;;;;;3.96;100.00;96702.31;2487525;29;20141;-88
2023/01/09 05:50:03;;;;;;;32.10;13.35;;;;;;;3.96;100.00;96703.13;2488800;29;20078;-87
2023/01/09 05:51:18;;;;;;;30.85;12.98;;;;;;;4.13;100.00;96708.72;2487916;29;20046;-89
2023/01/09 05:52:34;;;;;;;30.80;13.15;;;;;;;4.14;100.00;96702.63;2488118;29;20491;-88
2023/01/09 05:53:52;;;;;;;37.80;13.48;;;;;;;4.29;100.00;96703.94;2488494;29;20046;-89
2023/01/09 05:55:11;;;;;;;32.13;14.73;;;;;;;4.50;100.00;96698.06;2488732;29;20058;-88
2023/01/09 05:56:26;;;;;;;30.73;13.90;;;;;;;4.55;100.00;96697.91;2488554;29;20107;-88
2023/01/09 05:57:42;;;;;;;27.35;12.63;;;;;;;4.66;100.00;96701.00;2488492;29;20054;-88
2023/01/09 05:58:58;;;;;;;27.27;11.95;;;;;;;4.73;100.00;96703.38;2488935;29;20047;-87
2023/01/09 06:00:14;;;;;;;28.55;12.63;;;;;;;4.79;100.00;96700.59;2489009;29;20406;-86
2023/01/09 06:01:29;;;;;;;25.08;11.38;;;;;;;4.85;100.00;96707.34;2487921;29;20129;-88
2023/01/09 06:02:45;;;;;;;23.70;11.00;;;;;;;4.88;100.00;96702.06;2488349;29;20577;-93
2023/01/09 06:04:01;;;;;;;23.30;10.85;;;;;;;4.79;100.00;96706.63;2488498;29;20050;-91
2023/01/09 06:05:16;;;;;;;29.48;13.45;;;;;;;4.78;100.00;96704.94;2488027;29;20050;-90
2023/01/09 06:06:32;;;;;;;33.85;15.80;;;;;;;4.53;100.00;96710.91;2488519;29;20065;-90
2023/01/09 06:07:48;;;;;;;39.35;17.25;;;;;;;4.68;100.00;96707.88;2488448;29;20054;-91
2023/01/09 06:09:03;;;;;;;26.80;13.80;;;;;;;4.59;100.00;96706.44;2488423;29;20054;-88